Time;durP1;ratioP1;P1;durP2;ratioP2;P2;SDS_P1;SDS_P2;PMS_P1;PMS_P2;Temp;Humidity;BMP_temperature;BMP_pressure;BME280_temperature;BME280_humidity;BME280_pressure;Samples;Min_cycle;Max_cycle;Signal;HPM_P1;HPM_P2
2023/09/25 00:00:33;;;;;;;0.00;0.00;;;15.20;99.90;;;;;;4972958;28;20042;-64
2023/09/25 00:03:00;;;;;;;0.63;0.63;;;15.10;99.90;;;;;;4971385;28;20057;-64
2023/09/25 00:05:27;;;;;;;2.83;0.38;;;15.10;99.90;;;;;;4971084;28;20173;-64
2023/09/25 00:07:53;;;;;;;0.00;0.00;;;15.20;99.90;;;;;;4955574;28;20101;-64
2023/09/25 00:10:19;;;;;;;0.00;0.00;;;15.10;99.90;;;;;;4973091;28;20057;-64
2023/09/25 00:12:44;;;;;;;0.05;0.05;;;15.10;99.90;;;;;;4972579;28;20118;-64
2023/09/25 00:15:10;;;;;;;0.00;0.00;;;15.10;99.90;;;;;;4971333;28;20081;-64
2023/09/25 00:17:38;;;;;;;0.00;0.00;;;15.00;99.90;;;;;;4972960;28;20089;-64
2023/09/25 00:20:04;;;;;;;0.05;0.05;;;15.10;99.90;;;;;;4972555;28;20049;-64
2023/09/25 00:22:30;;;;;;;0.00;0.00;;;15.00;99.90;;;;;;4954088;28;20047;-64
2023/09/25 00:24:57;;;;;;;0.00;0.00;;;15.00;99.90;;;;;;4971745;28;20047;-64
2023/09/25 00:27:23;;;;;;;0.32;0.28;;;14.90;99.90;;;;;;4972832;28;20055;-64
2023/09/25 00:29:49;;;;;;;0.10;0.10;;;15.00;99.90;;;;;;4972897;28;20066;-64
2023/09/25 00:32:15;;;;;;;0.00;0.00;;;15.00;99.90;;;;;;4972444;28;20525;-64
2023/09/25 00:34:40;;;;;;;0.10;0.10;;;15.00;99.90;;;;;;4971284;28;20054;-64
2023/09/25 00:37:07;;;;;;;0.00;0.00;;;15.00;99.90;;;;;;4972760;28;20078;-64
2023/09/25 00:39:33;;;;;;;0.32;0.32;;;15.00;99.90;;;;;;4970141;28;20410;-64
2023/09/25 00:41:59;;;;;;;0.08;0.08;;;14.90;99.90;;;;;;4972948;28;20042;-64
2023/09/25 00:44:24;;;;;;;0.20;0.20;;;14.90;99.90;;;;;;4955759;28;20078;-64
2023/09/25 00:46:51;;;;;;;0.00;0.00;;;14.90;99.90;;;;;;4970321;28;20065;-64
2023/09/25 00:49:17;;;;;;;0.10;0.10;;;14.80;99.90;;;;;;4972614;28;20054;-64
2023/09/25 00:51:44;;;;;;;0.10;0.10;;;14.80;99.90;;;;;;4972435;28;20058;-64
2023/09/25 00:54:11;;;;;;;0.00;0.00;;;14.90;99.90;;;;;;4972189;28;20112;-64
2023/09/25 00:56:37;;;;;;;0.20;0.20;;;14.80;99.90;;;;;;4971027;28;20051;-64
2023/09/25 00:59:03;;;;;;;2.90;0.68;;;14.80;99.90;;;;;;4972540;28;20046;-64
2023/09/25 01:01:29;;;;;;;0.00;0.00;;;14.80;99.90;;;;;;4971990;28;20510;-64
2023/09/25 01:03:54;;;;;;;0.00;0.00;;;14.70;99.90;;;;;;4971062;28;20035;-65
2023/09/25 01:06:20;;;;;;;0.00;0.00;;;14.70;99.90;;;;;;4972506;28;20399;-64
2023/09/25 01:08:46;;;;;;;0.00;0.00;;;14.70;99.90;;;;;;4954673;28;20034;-64
2023/09/25 01:11:11;;;;;;;0.10;0.10;;;14.70;99.90;;;;;;4971106;28;20494;-64
2023/09/25 01:13:37;;;;;;;0.43;0.43;;;14.60;99.90;;;;;;4972334;28;20047;-65
2023/09/25 01:16:03;;;;;;;0.13;0.13;;;14.60;99.90;;;;;;4954400;28;20043;-64
2023/09/25 01:18:28;;;;;;;0.50;0.50;;;14.50;99.90;;;;;;4970648;28;20053;-64
2023/09/25 01:20:54;;;;;;;0.10;0.10;;;14.60;99.90;;;;;;4954818;28;20062;-64
2023/09/25 01:23:20;;;;;;;0.00;0.00;;;14.50;99.90;;;;;;4971761;28;20130;-64
2023/09/25 01:25:45;;;;;;;0.10;0.10;;;14.50;99.90;;;;;;4971021;28;20049;-64
2023/09/25 01:28:11;;;;;;;0.10;0.10;;;14.50;99.90;;;;;;4954357;28;20038;-64
2023/09/25 01:30:36;;;;;;;0.20;0.20;;;14.50;99.90;;;;;;4972393;28;20059;-64
2023/09/25 01:33:03;;;;;;;0.35;0.30;;;14.50;99.90;;;;;;4972228;28;20105;-64
2023/09/25 01:35:28;;;;;;;0.00;0.00;;;14.50;99.90;;;;;;4972232;28;20497;-64
2023/09/25 01:37:59;;;;;;;0.00;0.00;;;14.40;99.90;;;;;;4975469;28;20074;-64
2023/09/25 01:40:24;;;;;;;0.57;0.57;;;14.40;99.90;;;;;;4976002;28;20078;-64
2023/09/25 01:42:50;;;;;;;0.30;0.30;;;14.30;99.90;;;;;;4973348;28;20104;-64
2023/09/25 01:45:18;;;;;;;2.42;1.40;;;14.30;99.90;;;;;;4975734;28;20414;-64
2023/09/25 01:47:51;;;;;;;0.00;0.00;;;14.40;99.90;;;;;;4970783;28;20501;-64
2023/09/25 01:50:21;;;;;;;0.05;0.05;;;14.40;99.90;;;;;;4975215;28;20442;-65
2023/09/25 01:52:48;;;;;;;0.08;0.08;;;14.30;99.90;;;;;;4957971;28;20094;-64
2023/09/25 01:55:14;;;;;;;0.03;0.03;;;14.40;99.90;;;;;;4958265;28;20141;-64
2023/09/25 01:57:40;;;;;;;0.05;0.05;;;14.40;99.90;;;;;;4972961;28;20146;-64
2023/09/25 02:00:10;;;;;;;0.00;0.00;;;14.20;99.90;;;;;;4957988;28;20126;-64
2023/09/25 02:02:40;;;;;;;0.10;0.10;;;14.30;99.90;;;;;;4975402;28;20054;-64
2023/09/25 02:05:06;;;;;;;0.00;0.00;;;14.20;99.90;;;;;;4973389;28;20094;-64
2023/09/25 02:07:32;;;;;;;0.20;0.20;;;14.20;99.90;;;;;;4975285;28;20081;-64
2023/09/25 02:09:58;;;;;;;0.10;0.10;;;14.20;99.90;;;;;;4975156;28;20565;-64
2023/09/25 02:12:24;;;;;;;0.20;0.20;;;14.10;99.90;;;;;;4958257;28;20046;-64
2023/09/25 02:14:52;;;;;;;0.00;0.00;;;14.10;99.90;;;;;;4973887;28;20155;-64
2023/09/25 02:17:18;;;;;;;0.05;0.05;;;14.20;99.90;;;;;;4957015;28;20054;-64
2023/09/25 02:19:44;;;;;;;0.20;0.20;;;14.10;99.90;;;;;;4975008;28;20486;-64
2023/09/25 02:22:10;;;;;;;0.60;0.60;;;14.10;99.90;;;;;;4973030;28;20045;-64
2023/09/25 02:24:37;;;;;;;1.85;1.20;;;14.10;99.90;;;;;;4974036;28;20065;-64
2023/09/25 02:27:03;;;;;;;0.88;0.80;;;14.10;99.90;;;;;;4975324;28;20081;-64
2023/09/25 02:29:29;;;;;;;0.00;0.00;;;14.00;99.90;;;;;;4973457;28;20454;-64
2023/09/25 02:31:54;;;;;;;0.00;0.00;;;14.00;99.90;;;;;;4973709;28;20042;-64
2023/09/25 02:34:20;;;;;;;0.10;0.10;;;14.00;99.90;;;;;;4957444;28;20073;-64
2023/09/25 02:36:46;;;;;;;0.00;0.00;;;14.00;99.90;;;;;;4973230;28;20142;-64
2023/09/25 02:39:13;;;;;;;0.00;0.00;;;13.90;99.90;;;;;;4973660;28;20108;-64
2023/09/25 02:41:39;;;;;;;0.52;0.52;;;14.00;99.90;;;;;;4974694;28;20057;-64
2023/09/25 02:44:05;;;;;;;0.52;0.52;;;14.00;99.90;;;;;;4957524;28;20447;-64
2023/09/25 02:46:31;;;;;;;0.08;0.08;;;13.90;99.90;;;;;;4972066;28;20050;-64
2023/09/25 02:48:57;;;;;;;0.20;0.20;;;13.90;99.90;;;;;;4974426;28;20054;-64
2023/09/25 02:51:22;;;;;;;0.47;0.47;;;13.90;99.90;;;;;;4973431;28;20975;-64
2023/09/25 02:53:48;;;;;;;0.00;0.00;;;13.90;99.90;;;;;;4973822;28;20050;-64
2023/09/25 02:56:14;;;;;;;0.15;0.15;;;13.90;99.90;;;;;;4975109;28;20087;-64
2023/09/25 02:58:39;;;;;;;0.00;0.00;;;13.90;99.90;;;;;;4955850;28;20043;-64
2023/09/25 03:01:05;;;;;;;0.00;0.00;;;13.80;99.90;;;;;;4956777;28;20042;-64
2023/09/25 03:03:30;;;;;;;0.08;0.08;;;13.80;99.90;;;;;;4972909;28;20059;-64
2023/09/25 03:05:56;;;;;;;0.17;0.17;;;13.80;99.90;;;;;;4974652;28;20039;-65
2023/09/25 03:08:22;;;;;;;0.00;0.00;;;13.80;99.90;;;;;;4956638;28;20038;-64
2023/09/25 03:10:48;;;;;;;0.00;0.00;;;13.80;99.90;;;;;;4972958;28;20581;-64
2023/09/25 03:13:13;;;;;;;0.00;0.00;;;13.80;99.90;;;;;;4972754;28;20557;-64
2023/09/25 03:15:39;;;;;;;0.05;0.05;;;13.80;99.90;;;;;;4973522;28;20078;-64
2023/09/25 03:18:05;;;;;;;0.10;0.10;;;13.70;99.90;;;;;;4972675;28;20063;-65
2023/09/25 03:20:30;;;;;;;0.00;0.00;;;13.70;99.90;;;;;;4956505;28;20038;-65
2023/09/25 03:22:56;;;;;;;0.55;0.55;;;13.70;99.90;;;;;;4956018;28;20050;-65
2023/09/25 03:25:22;;;;;;;0.00;0.00;;;13.70;99.90;;;;;;4972031;28;20398;-65
2023/09/25 03:27:49;;;;;;;0.00;0.00;;;13.70;99.90;;;;;;4973372;28;20122;-64
2023/09/25 03:30:15;;;;;;;0.00;0.00;;;13.70;99.90;;;;;;4973963;28;20039;-65
2023/09/25 03:32:44;;;;;;;0.32;0.32;;;13.70;99.90;;;;;;4973971;28;20042;-64
2023/09/25 03:35:10;;;;;;;0.00;0.00;;;13.70;99.90;;;;;;4971525;28;20102;-65
2023/09/25 03:37:36;;;;;;;0.05;0.05;;;13.70;99.90;;;;;;4973533;28;20034;-64
2023/09/25 03:40:07;;;;;;;0.10;0.10;;;13.60;99.90;;;;;;4971822;28;20085;-65
2023/09/25 03:42:33;;;;;;;0.10;0.10;;;13.60;99.90;;;;;;4972722;28;20517;-64
2023/09/25 03:44:58;;;;;;;0.00;0.00;;;13.60;99.90;;;;;;4956418;28;20057;-65
2023/09/25 03:47:24;;;;;;;0.10;0.10;;;13.60;99.90;;;;;;4973379;28;20071;-65
2023/09/25 03:49:49;;;;;;;0.10;0.10;;;13.60;99.90;;;;;;4969574;28;20116;-65
2023/09/25 03:52:15;;;;;;;0.20;0.20;;;13.60;99.90;;;;;;4973720;28;20057;-64
2023/09/25 03:54:41;;;;;;;0.35;0.35;;;13.70;99.90;;;;;;4971880;28;20042;-65
2023/09/25 03:57:06;;;;;;;1.75;0.65;;;13.70;99.90;;;;;;4972276;28;20051;-65
2023/09/25 03:59:32;;;;;;;0.35;0.35;;;13.70;99.90;;;;;;4971370;28;20047;-65
2023/09/25 04:01:57;;;;;;;0.10;0.10;;;13.70;99.90;;;;;;4973368;28;20063;-64
2023/09/25 04:04:23;;;;;;;0.10;0.10;;;13.70;99.90;;;;;;4955521;28;20486;-65
2023/09/25 04:06:48;;;;;;;0.13;0.13;;;13.60;99.90;;;;;;4954332;28;20055;-65
2023/09/25 04:09:14;;;;;;;0.00;0.00;;;13.70;99.90;;;;;;4972729;28;20043;-65
2023/09/25 04:11:40;;;;;;;0.17;0.17;;;13.70;99.90;;;;;;4972659;28;20085;-65
2023/09/25 04:14:06;;;;;;;0.00;0.00;;;13.70;99.90;;;;;;4955650;28;20490;-65
2023/09/25 04:16:33;;;;;;;0.10;0.10;;;13.70;99.90;;;;;;4954223;28;20046;-65
2023/09/25 04:18:59;;;;;;;0.28;0.28;;;13.70;99.90;;;;;;4954820;28;20051;-65
2023/09/25 04:21:24;;;;;;;0.20;0.20;;;13.60;99.90;;;;;;4973134;28;20042;-65
2023/09/25 04:23:50;;;;;;;0.20;0.20;;;13.60;99.90;;;;;;4955529;28;20396;-64
2023/09/25 04:26:16;;;;;;;0.10;0.10;;;13.60;99.90;;;;;;4970946;28;20097;-65
2023/09/25 04:28:42;;;;;;;0.50;0.50;;;13.60;99.90;;;;;;4955429;28;20050;-65
2023/09/25 04:31:09;;;;;;;0.20;0.20;;;13.60;99.90;;;;;;4953420;28;20058;-65
2023/09/25 04:33:36;;;;;;;0.10;0.10;;;13.60;99.90;;;;;;4972794;28;20047;-65
2023/09/25 04:36:02;;;;;;;2.92;0.45;;;13.60;99.90;;;;;;4971375;28;20046;-64
2023/09/25 04:38:30;;;;;;;0.00;0.00;;;13.50;99.90;;;;;;4972000;28;20042;-65
2023/09/25 04:40:56;;;;;;;0.10;0.10;;;13.60;99.90;;;;;;4971367;28;20075;-65
2023/09/25 04:43:22;;;;;;;0.60;0.43;;;13.50;99.90;;;;;;4972332;28;20518;-65
2023/09/25 04:45:51;;;;;;;0.00;0.00;;;13.50;99.90;;;;;;4954495;28;20075;-65
2023/09/25 04:48:18;;;;;;;1.25;0.35;;;13.50;99.90;;;;;;4950622;29;20058;-65
2023/09/25 04:50:44;;;;;;;0.13;0.13;;;13.50;99.90;;;;;;4953412;28;20079;-65
2023/09/25 04:53:10;;;;;;;0.10;0.10;;;13.50;99.90;;;;;;4952950;29;20372;-65
2023/09/25 04:55:39;;;;;;;0.20;0.20;;;13.50;99.90;;;;;;4951821;29;20116;-64
2023/09/25 04:58:04;;;;;;;0.10;0.10;;;13.50;99.90;;;;;;4952015;29;20043;-64
2023/09/25 05:00:32;;;;;;;0.40;0.40;;;13.50;99.90;;;;;;4951300;29;20459;-64
2023/09/25 05:02:58;;;;;;;0.10;0.10;;;13.50;99.90;;;;;;4951652;29;20050;-65
2023/09/25 05:05:24;;;;;;;1.88;0.45;;;13.50;99.90;;;;;;4946319;29;20126;-64
2023/09/25 05:07:52;;;;;;;0.10;0.10;;;13.50;99.90;;;;;;4952729;29;20056;-64
2023/09/25 05:10:19;;;;;;;0.05;0.05;;;13.50;99.90;;;;;;4953674;28;20039;-64
2023/09/25 05:12:45;;;;;;;0.00;0.00;;;13.50;99.90;;;;;;4955204;29;20050;-64
2023/09/25 05:15:12;;;;;;;0.03;0.03;;;13.50;99.90;;;;;;4955888;29;20043;-65
2023/09/25 05:17:39;;;;;;;0.03;0.03;;;13.40;99.90;;;;;;4956914;29;20506;-65
2023/09/25 05:20:10;;;;;;;0.43;0.43;;;13.40;99.90;;;;;;4955070;29;20846;-64
2023/09/25 05:22:38;;;;;;;0.47;0.43;;;13.50;99.90;;;;;;4954660;29;20089;-64
2023/09/25 05:25:07;;;;;;;0.10;0.10;;;13.50;99.90;;;;;;4956959;29;20047;-65
2023/09/25 05:27:33;;;;;;;0.28;0.28;;;13.50;99.90;;;;;;4956315;29;20398;-64
2023/09/25 05:29:59;;;;;;;1.55;0.52;;;13.50;99.90;;;;;;4954989;29;20574;-64
2023/09/25 05:32:24;;;;;;;0.00;0.00;;;13.50;99.90;;;;;;4956695;29;20050;-65
2023/09/25 05:34:50;;;;;;;0.00;0.00;;;13.50;99.90;;;;;;4956291;29;20051;-64
2023/09/25 05:37:15;;;;;;;0.00;0.00;;;13.50;99.90;;;;;;4954778;29;20547;-65
2023/09/25 05:39:41;;;;;;;1.65;0.65;;;13.50;99.90;;;;;;4956477;29;20094;-64
2023/09/25 05:42:07;;;;;;;0.10;0.10;;;13.50;99.90;;;;;;4954965;29;20050;-64
2023/09/25 05:44:32;;;;;;;0.00;0.00;;;13.50;99.90;;;;;;4953339;29;20165;-64
2023/09/25 05:46:58;;;;;;;0.00;0.00;;;13.50;99.90;;;;;;4954943;29;20047;-65
2023/09/25 05:49:25;;;;;;;0.00;0.00;;;13.50;99.90;;;;;;4956097;29;20061;-64
2023/09/25 05:51:53;;;;;;;1.10;0.65;;;13.50;99.90;;;;;;4956404;29;20502;-64
2023/09/25 05:54:22;;;;;;;0.00;0.00;;;13.50;99.90;;;;;;4955225;28;20126;-65
2023/09/25 05:56:48;;;;;;;0.13;0.13;;;13.50;99.90;;;;;;4956065;29;20046;-64
2023/09/25 05:59:15;;;;;;;0.10;0.10;;;13.60;99.90;;;;;;4956675;28;20427;-64
2023/09/25 06:01:41;;;;;;;0.00;0.00;;;13.60;99.90;;;;;;4952259;29;20407;-64
2023/09/25 06:04:06;;;;;;;0.00;0.00;;;13.50;99.90;;;;;;4954064;29;20043;-64
2023/09/25 06:06:35;;;;;;;3.40;0.55;;;13.60;99.90;;;;;;4955196;29;20118;-64
2023/09/25 06:09:02;;;;;;;0.20;0.20;;;13.60;99.90;;;;;;4956348;28;20047;-64
2023/09/25 06:11:28;;;;;;;1.55;0.52;;;13.60;99.90;;;;;;4952881;29;20054;-64
2023/09/25 06:13:54;;;;;;;0.47;0.30;;;13.60;99.90;;;;;;4956396;28;20047;-65
2023/09/25 06:16:19;;;;;;;4.95;1.45;;;13.60;99.90;;;;;;4956204;29;20031;-64
2023/09/25 06:18:46;;;;;;;0.00;0.00;;;13.60;99.90;;;;;;4955503;29;20047;-64
2023/09/25 06:21:13;;;;;;;0.08;0.08;;;13.60;99.90;;;;;;4953439;28;20749;-65
2023/09/25 06:23:42;;;;;;;0.10;0.10;;;13.60;99.90;;;;;;4955248;29;20043;-64
2023/09/25 06:26:08;;;;;;;0.25;0.25;;;13.60;99.90;;;;;;4954438;28;20130;-65
2023/09/25 06:28:34;;;;;;;0.50;0.32;;;13.60;99.90;;;;;;4955573;29;20118;-65
2023/09/25 06:31:00;;;;;;;0.75;0.75;;;13.70;99.90;;;;;;4955090;28;20513;-65
2023/09/25 06:33:28;;;;;;;0.55;0.55;;;13.60;99.90;;;;;;4952625;29;20051;-65
2023/09/25 06:35:54;;;;;;;0.13;0.13;;;13.70;99.90;;;;;;4954353;29;20137;-65
2023/09/25 06:38:20;;;;;;;0.00;0.00;;;13.60;99.90;;;;;;4953128;29;20373;-64
2023/09/25 06:40:46;;;;;;;0.00;0.00;;;13.70;99.90;;;;;;4955286;28;20093;-64
2023/09/25 06:43:13;;;;;;;0.10;0.10;;;13.70;99.90;;;;;;4953770;29;20062;-64
2023/09/25 06:45:42;;;;;;;0.10;0.10;;;13.70;99.90;;;;;;4953107;29;20415;-64
2023/09/25 06:48:09;;;;;;;0.20;0.20;;;13.70;99.90;;;;;;4970127;28;20062;-65
2023/09/25 06:50:35;;;;;;;0.10;0.10;;;13.70;99.90;;;;;;4956961;28;20051;-65
2023/09/25 06:53:02;;;;;;;0.00;0.00;;;13.80;99.90;;;;;;4966277;28;20047;-64
2023/09/25 06:55:28;;;;;;;0.08;0.08;;;13.80;99.90;;;;;;4974653;28;20046;-65
2023/09/25 06:57:53;;;;;;;0.10;0.10;;;13.80;99.90;;;;;;4974718;28;20057;-65
2023/09/25 07:00:19;;;;;;;0.00;0.00;;;13.80;99.90;;;;;;4973466;28;20066;-64
2023/09/25 07:02:45;;;;;;;0.10;0.10;;;13.80;99.90;;;;;;4972748;28;20042;-65
2023/09/25 07:05:11;;;;;;;1.45;1.20;;;13.90;99.90;;;;;;4972796;28;20109;-64
2023/09/25 07:07:37;;;;;;;1.75;0.30;;;13.90;99.90;;;;;;4955694;28;20952;-65
2023/09/25 07:10:06;;;;;;;5.68;1.35;;;13.90;99.90;;;;;;4974077;28;20141;-65
2023/09/25 07:12:36;;;;;;;0.05;0.05;;;14.00;99.90;;;;;;4973940;28;20039;-65
2023/09/25 07:15:02;;;;;;;0.30;0.30;;;14.00;99.90;;;;;;4971709;28;20074;-64
2023/09/25 07:17:29;;;;;;;0.00;0.00;;;14.00;99.90;;;;;;4973620;28;20047;-64
2023/09/25 07:19:55;;;;;;;0.28;0.25;;;14.00;99.90;;;;;;4973317;28;20549;-65
2023/09/25 07:22:22;;;;;;;0.10;0.10;;;14.00;99.90;;;;;;4971802;28;20043;-65
2023/09/25 07:24:49;;;;;;;0.00;0.00;;;14.10;99.90;;;;;;4973973;28;20058;-65
2023/09/25 07:27:15;;;;;;;0.05;0.05;;;14.10;99.90;;;;;;4971522;28;20549;-65
2023/09/25 07:29:44;;;;;;;0.10;0.10;;;14.10;99.90;;;;;;4973721;28;20038;-65
2023/09/25 07:32:11;;;;;;;0.13;0.13;;;14.10;99.90;;;;;;4973048;28;20035;-65
2023/09/25 07:34:37;;;;;;;0.00;0.00;;;14.10;99.90;;;;;;4971355;28;20042;-65
2023/09/25 07:37:05;;;;;;;0.08;0.08;;;14.10;99.90;;;;;;4973655;28;20105;-64
2023/09/25 07:39:38;;;;;;;0.38;0.38;;;14.10;99.90;;;;;;4972172;28;20046;-65
2023/09/25 07:42:04;;;;;;;0.00;0.00;;;14.20;99.90;;;;;;4972866;28;20427;-64
2023/09/25 07:44:33;;;;;;;0.10;0.10;;;14.20;99.90;;;;;;4973767;28;20102;-64
2023/09/25 07:47:00;;;;;;;0.00;0.00;;;14.20;99.90;;;;;;4973267;28;20435;-64
2023/09/25 07:49:27;;;;;;;0.20;0.20;;;14.20;99.90;;;;;;4971330;28;20142;-64
2023/09/25 07:51:54;;;;;;;0.10;0.10;;;14.30;99.90;;;;;;4973306;28;20424;-65
2023/09/25 07:54:20;;;;;;;0.00;0.00;;;14.30;99.90;;;;;;4972187;28;20047;-65
2023/09/25 07:56:46;;;;;;;0.00;0.00;;;14.40;99.90;;;;;;4972421;28;20097;-65
2023/09/25 07:59:13;;;;;;;0.00;0.00;;;14.40;99.90;;;;;;4973445;28;20050;-64
2023/09/25 08:01:39;;;;;;;0.10;0.10;;;14.50;99.90;;;;;;4973090;28;20082;-65
2023/09/25 08:04:05;;;;;;;0.15;0.15;;;14.50;99.90;;;;;;4970732;28;20506;-64
2023/09/25 08:06:31;;;;;;;0.43;0.43;;;14.60;99.90;;;;;;4973394;28;20382;-64
2023/09/25 08:08:57;;;;;;;1.38;1.27;;;14.60;99.90;;;;;;4972711;28;20057;-64
2023/09/25 08:11:24;;;;;;;0.00;0.00;;;14.70;99.90;;;;;;4971435;28;20043;-64
2023/09/25 08:13:53;;;;;;;0.10;0.10;;;14.70;99.90;;;;;;4973170;28;20046;-65
2023/09/25 08:16:19;;;;;;;0.05;0.05;;;14.80;99.90;;;;;;4972443;28;20047;-64
2023/09/25 08:18:45;;;;;;;0.20;0.20;;;14.80;99.90;;;;;;4973522;28;20047;-65
2023/09/25 08:21:10;;;;;;;0.00;0.00;;;14.90;99.90;;;;;;4971580;28;20047;-64
2023/09/25 08:23:37;;;;;;;0.03;0.03;;;14.90;99.90;;;;;;4955236;28;20106;-64
2023/09/25 08:26:06;;;;;;;0.20;0.13;;;15.00;99.90;;;;;;4971208;28;20491;-65
2023/09/25 08:28:32;;;;;;;0.40;0.40;;;15.00;99.90;;;;;;4973015;28;20498;-65
2023/09/25 08:30:58;;;;;;;0.20;0.20;;;15.10;99.90;;;;;;4972471;28;20092;-65
2023/09/25 08:33:24;;;;;;;0.15;0.15;;;15.10;99.90;;;;;;4971118;28;20131;-65
2023/09/25 08:35:51;;;;;;;0.63;0.63;;;15.30;99.90;;;;;;4973078;28;20049;-64
2023/09/25 08:38:17;;;;;;;0.10;0.10;;;15.50;99.90;;;;;;4954855;28;20181;-64
2023/09/25 08:40:47;;;;;;;0.00;0.00;;;15.90;99.90;;;;;;4972612;28;20134;-64
2023/09/25 08:43:14;;;;;;;0.00;0.00;;;16.30;99.90;;;;;;4954445;28;20065;-65
2023/09/25 08:45:41;;;;;;;0.35;0.35;;;17.00;99.90;;;;;;4976060;28;20545;-65
2023/09/25 08:48:11;;;;;;;0.00;0.00;;;17.40;99.90;;;;;;4955983;29;20083;-65
2023/09/25 08:50:38;;;;;;;1.00;1.00;;;17.80;99.90;;;;;;4955906;29;20054;-65
2023/09/25 08:53:04;;;;;;;0.20;0.20;;;18.20;99.90;;;;;;4956830;29;20372;-65
2023/09/25 08:55:31;;;;;;;0.00;0.00;;;18.20;99.90;;;;;;4957446;29;20058;-64
2023/09/25 08:57:57;;;;;;;0.08;0.08;;;18.20;99.90;;;;;;4954234;29;20051;-65
2023/09/25 09:00:24;;;;;;;0.35;0.20;;;17.90;99.90;;;;;;4956832;28;20053;-65
2023/09/25 09:02:49;;;;;;;0.00;0.00;;;17.70;99.90;;;;;;4955307;29;20487;-65
2023/09/25 09:05:16;;;;;;;0.00;0.00;;;17.60;99.90;;;;;;4956617;29;20058;-65
2023/09/25 09:08:00;;;;;;;2.30;0.47;;;17.30;99.90;;;;;;4955562;28;20050;-64
2023/09/25 09:10:35;;;;;;;0.00;0.00;;;17.10;99.90;;;;;;4950677;29;20146;-64
2023/09/25 09:13:01;;;;;;;0.00;0.00;;;17.10;99.90;;;;;;4955266;28;20043;-65
2023/09/25 09:15:29;;;;;;;0.10;0.10;;;17.10;99.90;;;;;;4956915;28;20051;-65
2023/09/25 09:17:56;;;;;;;0.00;0.00;;;17.10;99.90;;;;;;4955751;29;20078;-65
2023/09/25 09:20:36;;;;;;;0.10;0.10;;;17.10;99.90;;;;;;4954800;29;20082;-65
2023/09/25 09:23:02;;;;;;;0.00;0.00;;;17.60;99.90;;;;;;4955589;29;20081;-65
2023/09/25 09:25:29;;;;;;;0.15;0.15;;;18.00;99.90;;;;;;4956349;28;20047;-65
2023/09/25 09:27:59;;;;;;;0.00;0.00;;;17.80;99.90;;;;;;4956431;29;20039;-65
2023/09/25 09:30:25;;;;;;;0.10;0.10;;;18.40;99.90;;;;;;4955099;28;20407;-65
2023/09/25 09:32:51;;;;;;;0.17;0.17;;;18.80;99.90;;;;;;4956290;29;20550;-65
2023/09/25 09:35:27;;;;;;;0.00;0.00;;;19.10;99.90;;;;;;4954456;28;20134;-65
2023/09/25 09:37:54;;;;;;;0.13;0.13;;;19.30;99.90;;;;;;4953165;29;20065;-65
2023/09/25 09:40:24;;;;;;;1.17;0.45;;;19.30;99.90;;;;;;4956221;29;20490;-65
2023/09/25 09:42:51;;;;;;;0.00;0.00;;;19.40;99.90;;;;;;4940931;29;20122;-65
2023/09/25 09:45:21;;;;;;;0.00;0.00;;;19.80;99.90;;;;;;4954978;29;20103;-65
2023/09/25 09:47:48;;;;;;;0.13;0.13;;;20.20;99.90;;;;;;4954091;29;20055;-65
2023/09/25 09:50:19;;;;;;;0.15;0.15;;;20.40;99.90;;;;;;4955144;29;20051;-65
2023/09/25 09:52:45;;;;;;;0.20;0.20;;;20.10;99.90;;;;;;4956350;28;20049;-65
2023/09/25 09:55:14;;;;;;;0.13;0.13;;;19.90;99.90;;;;;;4976291;28;20547;-65
2023/09/25 09:57:39;;;;;;;0.00;0.00;;;19.90;99.90;;;;;;4956046;28;20046;-65
2023/09/25 10:00:08;;;;;;;0.00;0.00;;;19.80;99.90;;;;;;4956398;29;20051;-65
2023/09/25 10:02:35;;;;;;;0.08;0.08;;;19.80;99.90;;;;;;4954342;29;20058;-65
2023/09/25 10:05:02;;;;;;;0.08;0.08;;;19.70;99.90;;;;;;4954160;28;20546;-65
2023/09/25 10:07:28;;;;;;;0.00;0.00;;;19.60;99.90;;;;;;4956051;29;20046;-65
2023/09/25 10:10:04;;;;;;;0.10;0.10;;;19.40;99.90;;;;;;4953891;28;20443;-65
2023/09/25 10:12:40;;;;;;;0.00;0.00;;;19.30;99.90;;;;;;4955749;29;20043;-65
2023/09/25 10:15:11;;;;;;;0.10;0.10;;;19.30;99.90;;;;;;4956098;29;20039;-65
2023/09/25 10:17:41;;;;;;;0.10;0.10;;;19.10;99.90;;;;;;4953850;28;20043;-65
2023/09/25 10:20:27;;;;;;;0.00;0.00;;;19.10;99.90;;;;;;4955805;28;20081;-65
2023/09/25 10:22:53;;;;;;;0.00;0.00;;;19.00;99.90;;;;;;4953519;28;20113;-65
2023/09/25 10:25:19;;;;;;;0.10;0.10;;;19.00;99.90;;;;;;4955672;29;20503;-65
2023/09/25 10:27:46;;;;;;;0.15;0.15;;;19.10;99.90;;;;;;4955944;29;20090;-65
2023/09/25 10:30:15;;;;;;;0.00;0.00;;;19.10;99.90;;;;;;4953436;29;20039;-65
2023/09/25 10:32:49;;;;;;;0.17;0.17;;;19.10;99.90;;;;;;4947856;29;20077;-65
2023/09/25 10:35:49;;;;;;;0.00;0.00;;;19.10;99.90;;;;;;4954189;28;20051;-65
2023/09/25 10:38:21;;;;;;;0.15;0.15;;;19.20;99.90;;;;;;4950856;29;20079;-65
2023/09/25 10:40:51;;;;;;;4.57;0.43;;;19.20;99.90;;;;;;4955654;29;20043;-64
2023/09/25 10:43:23;;;;;;;0.30;0.30;;;19.50;99.90;;;;;;4953739;29;20477;-65
2023/09/25 10:45:52;;;;;;;0.30;0.30;;;19.60;99.90;;;;;;4954061;29;20062;-65
2023/09/25 10:48:18;;;;;;;0.20;0.10;;;19.70;99.90;;;;;;4973122;28;20458;-65
2023/09/25 10:50:44;;;;;;;0.00;0.00;;;19.90;99.90;;;;;;4973656;28;20061;-64
2023/09/25 10:53:11;;;;;;;0.00;0.00;;;19.90;99.90;;;;;;4972839;28;20518;-65
2023/09/25 10:55:37;;;;;;;0.20;0.20;;;19.70;99.90;;;;;;4974564;28;20043;-64
2023/09/25 10:58:04;;;;;;;0.00;0.00;;;19.70;99.90;;;;;;4972033;28;20046;-65
2023/09/25 11:00:32;;;;;;;0.00;0.00;;;19.70;99.90;;;;;;4956991;28;20490;-64
2023/09/25 11:03:02;;;;;;;0.17;0.17;;;19.60;99.90;;;;;;4981224;28;20394;-65
2023/09/25 11:05:32;;;;;;;0.00;0.00;;;19.50;99.90;;;;;;4972337;28;20050;-65
2023/09/25 11:07:59;;;;;;;0.88;0.52;;;19.40;99.90;;;;;;4974100;28;20054;-65
2023/09/25 11:10:32;;;;;;;1.35;0.40;;;19.40;99.90;;;;;;4974158;28;20102;-65
2023/09/25 11:13:00;;;;;;;0.10;0.10;;;19.50;99.90;;;;;;4973545;28;20125;-65
2023/09/25 11:15:27;;;;;;;0.38;0.38;;;19.70;99.90;;;;;;4972623;28;20138;-65
2023/09/25 11:17:55;;;;;;;0.00;0.00;;;19.90;99.90;;;;;;4973770;28;20657;-65
2023/09/25 11:20:29;;;;;;;0.20;0.20;;;19.80;99.90;;;;;;4973354;28;20092;-65
2023/09/25 11:23:14;;;;;;;0.47;0.47;;;20.00;99.90;;;;;;4972708;28;20062;-64
2023/09/25 11:25:42;;;;;;;0.20;0.20;;;20.10;99.90;;;;;;4949914;28;20047;-64
2023/09/25 11:28:11;;;;;;;0.25;0.25;;;20.20;99.90;;;;;;4971685;28;20047;-65
2023/09/25 11:30:37;;;;;;;0.00;0.00;;;20.30;99.90;;;;;;4947780;28;20093;-65
2023/09/25 11:33:08;;;;;;;1.02;0.22;;;20.50;99.90;;;;;;4973309;28;20046;-64
2023/09/25 11:35:37;;;;;;;0.00;0.00;;;20.60;99.90;;;;;;4954612;28;20043;-64
2023/09/25 11:38:12;;;;;;;0.00;0.00;;;20.80;99.90;;;;;;4973820;28;20430;-65
2023/09/25 11:40:38;;;;;;;5.50;0.95;;;21.00;99.90;;;;;;4955479;28;20113;-64
2023/09/25 11:43:05;;;;;;;0.00;0.00;;;21.10;99.90;;;;;;4954570;28;20494;-65
2023/09/25 11:45:31;;;;;;;3.40;0.70;;;21.00;99.90;;;;;;4972185;28;20042;-65
2023/09/25 11:47:57;;;;;;;1.10;0.10;;;21.10;99.90;;;;;;4951810;29;20051;-65
2023/09/25 11:50:22;;;;;;;0.45;0.10;;;21.30;99.90;;;;;;4951338;29;20066;-64
2023/09/25 11:52:48;;;;;;;0.13;0.13;;;21.20;99.90;;;;;;4954093;29;20101;-65
2023/09/25 11:55:17;;;;;;;0.00;0.00;;;21.30;99.90;;;;;;4951950;29;20074;-65
2023/09/25 11:57:44;;;;;;;0.00;0.00;;;21.30;99.90;;;;;;4952927;29;20074;-65
2023/09/25 12:00:19;;;;;;;0.10;0.10;;;21.40;99.90;;;;;;4954009;29;20047;-65
2023/09/25 12:57:25;;;;;;;0.20;0.20;;;21.20;99.90;;;;;;5039974;27;20814;-65
2023/09/25 12:59:52;;;;;;;0.43;0.28;;;21.30;99.90;;;;;;5040836;28;20062;-65
2023/09/25 13:02:18;;;;;;;0.00;0.00;;;22.20;99.90;;;;;;5033536;28;20475;-65
2023/09/25 13:04:44;;;;;;;4.55;0.80;;;22.70;99.90;;;;;;5041187;28;20044;-65
2023/09/25 13:07:09;;;;;;;18.98;0.75;;;23.10;99.90;;;;;;5042560;28;20435;-65
2023/09/25 13:09:35;;;;;;;10.65;1.75;;;23.60;99.90;;;;;;5046942;28;20091;-65
2023/09/25 13:12:00;;;;;;;0.00;0.00;;;23.80;99.90;;;;;;5047376;28;20053;-65
2023/09/25 13:14:26;;;;;;;7.80;0.30;;;23.30;99.90;;;;;;5048143;28;20526;-65
2023/09/25 13:16:52;;;;;;;0.30;0.30;;;23.30;99.90;;;;;;5048845;28;20041;-65
2023/09/25 13:19:17;;;;;;;0.35;0.22;;;23.50;99.90;;;;;;5030616;28;20038;-66
2023/09/25 13:21:43;;;;;;;0.47;0.47;;;23.70;99.90;;;;;;5040800;28;20840;-65
2023/09/25 13:24:09;;;;;;;0.00;0.00;;;24.00;99.90;;;;;;5048555;28;20450;-65
2023/09/25 13:26:34;;;;;;;0.00;0.00;;;24.10;99.90;;;;;;5048322;28;20083;-65
2023/09/25 13:29:00;;;;;;;0.10;0.10;;;24.10;99.90;;;;;;5037725;28;20056;-65
2023/09/25 13:31:26;;;;;;;1.27;1.20;;;23.40;99.90;;;;;;5046445;28;20060;-65
2023/09/25 13:33:51;;;;;;;0.00;0.00;;;22.90;99.90;;;;;;5048441;28;20120;-65
2023/09/25 13:36:17;;;;;;;0.00;0.00;;;22.60;99.90;;;;;;5045345;28;20049;-65
2023/09/25 13:38:43;;;;;;;2.63;0.90;;;22.40;99.90;;;;;;5032770;28;20048;-65
2023/09/25 13:41:12;;;;;;;0.00;0.00;;;22.10;99.90;;;;;;5047033;28;20069;-65